»·PEaware :: ASA1598 KSFO-KPSP

ASA1598 :: KSFO-KPSP

FLIGHT INFORMATION

Flight Status: Arrived
Operator:
Alaska Airlines
More flights by this operator :: More flights under this callsign
Pilot: Patricio R. (14780)
Aircraft: BOEING 737-800
(B738)
More flights by this aircraft type
Origin: KSFO San Francisco Intl
United States
Destination: KPSP Palm Springs Intl
United States
More flights between these airports :: More routes between these airports
Route: SSTIK3 LOSHN CLASN SIZLR3
File this flight plan on PilotEdge
Remarks: PBN / A1B1C1D1S1S2 DOF / 180503 REG / N806SB EET / KZAK0018 KZLA0026 OPR / ASA PER / C RMK / TCAS SIMBRIEF
Altitude:
(Current/Filed)
37,000ft
Speed:
(Current/Filed)
445kts
Departed: 02-May-18 05:39 PM
Arrived: 02-May-18 06:46 PM
Distance/Time
Traveled:
365nm/1:07
Distance/Time
To Go:
Arrived

Flight Plot

Page will automatically refresh every two minutes.

Flight plan parsing failed; only flown route is shown


Map Options




Map Legend


Flown Route
Filed Route
Departure Airport
Arrival Airport
Navaid (VOR, NDB)
Fix

Horizontal Profiles

Position Reports

Time Latitude Longitude Heading Altitude Ground
Speed
02-May-18 16:49 37.617862 -122.380612 257 19ft 0kts
02-May-18 16:50 37.617862 -122.380612 257 19ft 0kts
02-May-18 16:51 37.617862 -122.380612 257 19ft 0kts
02-May-18 16:52 37.617862 -122.380612 257 19ft 0kts
02-May-18 16:53 37.617862 -122.380612 257 19ft 0kts
02-May-18 16:54 37.617862 -122.380612 257 19ft 0kts
02-May-18 16:55 37.617862 -122.380612 257 19ft 0kts
02-May-18 16:56 37.617862 -122.380612 257 19ft 0kts
02-May-18 16:57 37.617862 -122.380612 257 19ft 0kts
02-May-18 16:59 37.617862 -122.380612 257 19ft 0kts
02-May-18 17:00 37.617862 -122.380612 257 19ft 0kts
02-May-18 17:01 37.617862 -122.380612 257 19ft 0kts
02-May-18 17:02 37.617862 -122.380612 257 19ft 0kts
02-May-18 17:03 37.617862 -122.380612 257 19ft 0kts
02-May-18 17:04 37.617862 -122.380612 257 19ft 0kts
02-May-18 17:05 37.617862 -122.380612 257 19ft 0kts
02-May-18 17:06 37.617862 -122.380612 257 19ft 0kts
02-May-18 17:07 37.617862 -122.380612 257 19ft 0kts
02-May-18 17:08 37.617862 -122.380612 257 19ft 0kts
02-May-18 17:09 37.617862 -122.380612 257 19ft 0kts
02-May-18 17:10 37.617862 -122.380612 257 19ft 0kts
02-May-18 17:11 37.617862 -122.380612 257 19ft 0kts
02-May-18 17:12 37.617862 -122.380612 257 19ft 0kts
02-May-18 17:13 37.617862 -122.380612 257 19ft 0kts
02-May-18 17:14 37.617862 -122.380612 257 19ft 0kts
02-May-18 17:15 37.617862 -122.380612 257 19ft 0kts
02-May-18 17:16 37.617862 -122.380612 257 19ft 0kts
02-May-18 17:17 37.617862 -122.380612 257 19ft 0kts
02-May-18 17:18 37.617862 -122.380612 257 19ft 0kts
02-May-18 17:19 37.617862 -122.380612 257 19ft 0kts
02-May-18 17:20 37.617862 -122.380612 257 19ft 0kts
02-May-18 17:21 37.617862 -122.380612 257 19ft 0kts
02-May-18 17:22 37.617862 -122.380612 257 19ft 0kts
02-May-18 17:23 37.617862 -122.380612 257 19ft 0kts
02-May-18 17:24 37.617862 -122.380612 257 19ft 0kts
02-May-18 17:25 37.617862 -122.380612 257 19ft 0kts
02-May-18 17:26 37.617862 -122.380612 257 19ft 0kts
02-May-18 17:27 37.617862 -122.380612 257 19ft 0kts
02-May-18 17:28 37.617862 -122.380612 257 19ft 0kts
02-May-18 17:29 37.617862 -122.380612 257 19ft 0kts
02-May-18 17:30 37.617862 -122.380612 257 19ft 0kts
02-May-18 17:31 37.617872 -122.380556 257 19ft 2kts
02-May-18 17:32 37.617994 -122.379884 247 19ft 2kts
02-May-18 17:33 37.618384 -122.379721 160 19ft 0kts
02-May-18 17:34 37.618384 -122.379721 160 19ft 0kts
02-May-18 17:35 37.618014 -122.379570 164 19ft 7kts
02-May-18 17:36 37.614967 -122.380735 208 19ft 14kts
02-May-18 17:37 37.610804 -122.383506 207 19ft 17kts
02-May-18 17:38 37.608302 -122.383488 118 19ft 12kts
02-May-18 17:39 37.629916 -122.368118 23 577ft 184kts
02-May-18 17:40 37.674782 -122.347827 339 3745ft 177kts
02-May-18 17:41 37.673766 -122.402357 0 6281ft 0kts
02-May-18 17:42 37.604487 -122.432342 197 8781ft 293kts
02-May-18 17:43 37.522710 -122.461473 187 10244ft 318kts
02-May-18 17:43 37.454370 -122.428176 127 12556ft 336kts
02-May-18 17:44 37.395947 -122.333081 122 15808ft 357kts
02-May-18 17:45 37.332236 -122.232768 120 18839ft 378kts
02-May-18 17:47 37.253908 -122.111092 121 19085ft 381kts
02-May-18 17:48 37.186308 -122.006689 120 20757ft 395kts
02-May-18 17:49 37.115375 -121.897594 120 23193ft 414kts
02-May-18 17:50 37.041351 -121.784182 120 25430ft 430kts
02-May-18 17:50 36.977277 -121.686403 120 27154ft 442kts
02-May-18 17:51 36.898510 -121.566620 120 29025ft 456kts
02-May-18 17:52 36.819565 -121.447128 120 30911ft 458kts
02-May-18 17:53 36.738941 -121.325497 122 32709ft 458kts
02-May-18 17:54 36.660616 -121.207625 122 34312ft 456kts
02-May-18 17:55 36.586346 -121.096237 123 35660ft 455kts
02-May-18 17:56 36.506523 -120.976975 124 36947ft 455kts
02-May-18 17:57 36.433169 -120.867080 124 37134ft 479kts
02-May-18 17:58 36.346244 -120.737034 124 37026ft 496kts
02-May-18 17:59 36.258055 -120.605786 124 37023ft 496kts
02-May-18 18:00 36.170228 -120.475578 125 37026ft 495kts
02-May-18 18:01 36.082537 -120.346101 125 37026ft 495kts
02-May-18 18:02 35.997413 -120.220673 126 37026ft 494kts
02-May-18 18:03 35.909182 -120.091189 126 37026ft 493kts
02-May-18 18:04 35.850364 -120.004797 123 37008ft 491kts
02-May-18 18:05 35.782662 -119.832982 108 37014ft 482kts
02-May-18 18:06 35.727040 -119.683267 110 37017ft 482kts
02-May-18 18:07 35.673389 -119.540844 110 37018ft 482kts
02-May-18 18:08 35.591747 -119.408632 129 37019ft 491kts
02-May-18 18:09 35.504031 -119.290771 130 37017ft 491kts
02-May-18 18:10 35.416991 -119.173959 130 37018ft 490kts
02-May-18 18:11 35.325599 -119.051756 130 37019ft 490kts
02-May-18 18:12 35.233261 -118.929319 131 37019ft 491kts
02-May-18 18:13 35.148102 -118.816918 131 37058ft 491kts
02-May-18 18:14 35.055156 -118.694672 131 37099ft 495kts
02-May-18 18:15 34.963207 -118.574274 130 35021ft 487kts
02-May-18 18:16 34.880881 -118.466881 129 32405ft 490kts
02-May-18 18:17 34.790976 -118.350121 128 29417ft 470kts
02-May-18 18:18 34.715184 -118.237821 123 26671ft 458kts
02-May-18 18:19 34.639321 -118.119925 122 23639ft 424kts
02-May-18 18:20 34.572472 -118.016156 121 21496ft 396kts
02-May-18 18:21 34.525292 -117.899070 111 20636ft 393kts
02-May-18 18:22 34.478268 -117.782066 113 19782ft 387kts
02-May-18 18:23 34.431336 -117.666822 114 18947ft 381kts
02-May-18 18:24 34.385179 -117.553447 114 18151ft 375kts
02-May-18 18:25 34.339781 -117.442546 114 17473ft 370kts
02-May-18 18:26 34.295269 -117.334659 116 16730ft 367kts
02-May-18 18:27 34.260375 -117.259270 117 16180ft 365kts
02-May-18 18:28 34.210918 -117.153612 117 16083ft 369kts
02-May-18 18:29 34.163012 -117.051752 117 16079ft 335kts
02-May-18 18:30 34.117934 -116.956103 117 16084ft 333kts
02-May-18 18:31 34.072602 -116.859269 117 14987ft 342kts
02-May-18 18:32 34.027483 -116.762118 110 13686ft 325kts
02-May-18 18:33 33.988837 -116.665151 120 12193ft 326kts
02-May-18 18:34 33.937669 -116.577669 121 10709ft 311kts
02-May-18 18:35 33.890115 -116.497226 121 9230ft 291kts
02-May-18 18:36 33.845802 -116.419406 121 7787ft 290kts
02-May-18 18:37 33.802854 -116.338719 121 6301ft 287kts
02-May-18 18:38 33.762346 -116.274592 169 4973ft 239kts
02-May-18 18:39 33.710955 -116.304739 259 4824ft 200kts
02-May-18 18:40 33.724111 -116.365525 292 3980ft 180kts
02-May-18 18:41 33.747843 -116.408124 301 3602ft 160kts
02-May-18 18:42 33.768658 -116.451472 301 2486ft 140kts
02-May-18 18:43 33.796579 -116.477974 321 1178ft 120kts
02-May-18 18:44 33.822940 -116.501637 321 500ft 118kts
02-May-18 18:45 33.833220 -116.511294 268 485ft 6kts
02-May-18 18:46 33.832974 -116.511827 207 485ft 0kts
02-May-18 18:47 33.832350 -116.511953 178 485ft 13kts
02-May-18 18:48 33.825919 -116.506360 143 485ft 17kts
02-May-18 18:49 33.823170 -116.505011 225 485ft 5kts
02-May-18 18:50 33.823115 -116.505680 273 485ft 0kts

Navigation Log

Ident Type
Flight plan parsing failed, navigation log unavailable